Ney, OH (43549)

8:16 AM EST on February 10, 2016 (GMT -0500)
Defiance Memorial | | Change Station
CLOSE
Current Station
Airport
Location: Defiance,
Elevation: 705 ft
Nearby Weather Stations

Elev 705 ft 41.34 °N, 84.43 °W | Updated 5 minutes ago

Snow
Snow
20 °F
Feels Like 11 °F
N
7
Wind Variable Wind from West

Today
High -- | Low -- °F
--% Chance of Precip.
Yesterday
High -- | Low -- °F
Precip. -- in
Pressure 29.87 in
Visibility 2.5 miles
Clouds Few 1700 ft
Scattered Clouds 2100 ft
Overcast 3300 ft
Windchill 11 °F
Dew Point 15 °F
Humidity 81%
Rainfall 0.00 in
Snow Depth Not available.
7:40 AM 6:05 PM
Waxing Crescent, 5% visible
SPECI KDFI 101311Z AUTO 26006KT 2 1/2SM -SN FEW017 SCT021 OVC033 M07/M09 A2987 RMK AO2 P0000 T10671094
Pressure 29.87 in
Visibility 2.5 miles
Clouds Few 1700 ft
Scattered Clouds 2100 ft
Overcast 3300 ft
Windchill 11 °F
Dew Point 15 °F
Humidity 81%
Rainfall 0.00 in
Snow Depth Not available.
7:40 AM 6:05 PM
Waxing Crescent, 5% visible
SPECI KDFI 101311Z AUTO 26006KT 2 1/2SM -SN FEW017 SCT021 OVC033 M07/M09 A2987 RMK AO2 P0000 T10671094

10-Day Weather Forecast

Almanac

Astronomy

Feb. 10, 2016 Rise Set
Actual Time
Civil Twilight
Nautical Twilight
Astronomical Twilight
Moon
Length of Visible Light
Length of Day
Tomorrow will be .
, % of the Moon is Illuminated

Today's Extremes

State Highs State Lows

Community

WunderPhotos

Upload Photos

1,891,839 photos uploaded!

WunderBlog® & News

Nearby

Air Quality

  Air Quality AQ Index Pollutant
Not available.

Snow Depth

Station Depth Elevation

Earthquake Activity

City Distance Mag. Time & Date
Minimum magnitude displayed is 2.5.

Coastal Water Temperatures

Place Temperature

Stations

Nearby Weather Stations

Station Location Temp. Windchill Dew Point Humidity Wind Precip. Elev Updated Type
                   

Watches & Warnings

There are currently no watches in effect.